TimeCDT,TemperatureF,Dew PointF,Humidity,Sea Level PressureIn,VisibilityMPH,Wind Direction,Wind SpeedMPH,Gust SpeedMPH,PrecipitationIn,Events,Conditions,WindDirDegrees,DateUTC
12:15 AM,39.2,28.4,65,30.18,10.0,SSE,9.2,-,N/A,,Clear,160,2014-03-30 05:15:00
12:35 AM,39.2,28.4,65,30.18,10.0,SSE,8.1,-,N/A,,Clear,150,2014-03-30 05:35:00
12:55 AM,37.4,28.4,70,30.15,10.0,SSE,10.4,-,N/A,,Partly Cloudy,150,2014-03-30 05:55:00
1:15 AM,37.4,28.4,70,30.15,10.0,SSE,10.4,-,N/A,,Clear,150,2014-03-30 06:15:00
1:35 AM,37.4,28.4,70,30.14,10.0,SSE,9.2,-,N/A,,Clear,160,2014-03-30 06:35:00
1:55 AM,37.4,28.4,70,30.13,10.0,SSE,10.4,-,N/A,,Clear,160,2014-03-30 06:55:00
2:15 AM,37.4,30.2,75,30.12,10.0,SSE,9.2,-,N/A,,Clear,160,2014-03-30 07:15:00
2:35 AM,37.4,30.2,75,30.12,10.0,SSE,8.1,-,N/A,,Clear,150,2014-03-30 07:35:00
2:55 AM,37.4,30.2,75,30.11,10.0,SSE,9.2,-,N/A,,Clear,160,2014-03-30 07:55:00
3:15 AM,37.4,30.2,75,30.10,10.0,SSE,9.2,-,N/A,,Clear,160,2014-03-30 08:15:00
3:35 AM,37.4,30.2,75,30.10,10.0,SSE,10.4,-,N/A,,Clear,150,2014-03-30 08:35:00
3:55 AM,37.4,30.2,75,30.09,10.0,SSE,10.4,-,N/A,,Scattered Clouds,150,2014-03-30 08:55:00
4:15 AM,37.4,30.2,75,30.08,10.0,SSE,10.4,-,N/A,,Scattered Clouds,160,2014-03-30 09:15:00
4:35 AM,37.4,30.2,75,30.08,10.0,SSE,11.5,-,N/A,,Clear,150,2014-03-30 09:35:00
4:55 AM,35.6,30.2,81,30.08,10.0,SSE,10.4,-,N/A,,Mostly Cloudy,160,2014-03-30 09:55:00
5:15 AM,37.4,30.2,75,30.09,10.0,SSE,9.2,-,N/A,,Mostly Cloudy,160,2014-03-30 10:15:00
5:35 AM,37.4,30.2,75,30.09,10.0,SSE,10.4,-,N/A,,Overcast,160,2014-03-30 10:35:00
5:55 AM,37.4,30.2,75,30.09,10.0,SSE,10.4,16.1,N/A,,Overcast,160,2014-03-30 10:55:00
6:15 AM,37.4,30.2,75,30.09,10.0,SSE,12.7,-,N/A,,Overcast,160,2014-03-30 11:15:00
6:35 AM,37.4,30.2,75,30.08,10.0,SSE,11.5,18.4,N/A,,Overcast,160,2014-03-30 11:35:00
6:55 AM,37.4,30.2,75,30.08,9.0,SSE,11.5,-,N/A,,Mostly Cloudy,160,2014-03-30 11:55:00
7:15 AM,37.4,30.2,75,30.08,9.0,SSE,10.4,17.3,N/A,,Partly Cloudy,160,2014-03-30 12:15:00
7:35 AM,37.4,32.0,81,30.08,9.0,SSE,10.4,-,N/A,,Clear,160,2014-03-30 12:35:00
7:55 AM,39.2,32.0,75,30.08,10.0,South,13.8,-,N/A,,Clear,170,2014-03-30 12:55:00
8:15 AM,41.0,32.0,70,30.08,10.0,South,15.0,-,N/A,,Clear,170,2014-03-30 13:15:00
8:35 AM,41.0,32.0,70,30.07,10.0,South,12.7,21.9,N/A,,Clear,170,2014-03-30 13:35:00
8:55 AM,42.8,32.0,66,30.05,10.0,SSE,15.0,-,N/A,,Clear,160,2014-03-30 13:55:00
9:15 AM,44.6,32.0,61,30.05,10.0,SSE,15.0,20.7,N/A,,Clear,160,2014-03-30 14:15:00
9:35 AM,48.2,32.0,54,30.05,10.0,South,17.3,23.0,N/A,,Clear,190,2014-03-30 14:35:00
9:55 AM,50.0,32.0,50,30.04,10.0,South,17.3,26.5,N/A,,Clear,180,2014-03-30 14:55:00
10:15 AM,51.8,32.0,47,30.04,10.0,South,19.6,-,N/A,,Clear,170,2014-03-30 15:15:00
10:35 AM,53.6,32.0,44,30.04,10.0,South,19.6,-,N/A,,Clear,190,2014-03-30 15:35:00
10:55 AM,55.4,32.0,41,30.04,10.0,SSW,17.3,26.5,N/A,,Clear,200,2014-03-30 15:55:00
11:15 AM,59.0,32.0,36,30.03,10.0,South,18.4,-,N/A,,Clear,180,2014-03-30 16:15:00
11:35 AM,59.0,32.0,36,30.02,10.0,South,17.3,26.5,N/A,,Clear,170,2014-03-30 16:35:00
11:55 AM,60.8,30.2,31,30.01,10.0,South,16.1,26.5,N/A,,Clear,190,2014-03-30 16:55:00
12:15 PM,62.6,30.2,30,29.99,10.0,South,21.9,-,N/A,,Clear,190,2014-03-30 17:15:00
12:35 PM,64.4,30.2,28,29.98,10.0,South,17.3,32.2,N/A,,Clear,190,2014-03-30 17:35:00
12:55 PM,66.2,30.2,26,29.97,10.0,South,23.0,28.8,N/A,,Clear,180,2014-03-30 17:55:00
1:15 PM,66.2,30.2,26,29.96,10.0,South,23.0,31.1,N/A,,Clear,180,2014-03-30 18:15:00
1:35 PM,68.0,30.2,24,29.94,10.0,SSW,20.7,29.9,N/A,,Clear,200,2014-03-30 18:35:00
1:55 PM,68.0,30.2,24,29.93,10.0,SSW,20.7,32.2,N/A,,Clear,200,2014-03-30 18:55:00
2:15 PM,68.0,30.2,24,29.92,10.0,South,20.7,31.1,N/A,,Clear,180,2014-03-30 19:15:00
2:35 PM,68.0,30.2,24,29.89,10.0,South,24.2,31.1,N/A,,Clear,170,2014-03-30 19:35:00
2:55 PM,69.8,30.2,23,29.88,10.0,South,26.5,33.4,N/A,,Clear,170,2014-03-30 19:55:00
3:15 PM,69.8,28.4,21,29.88,10.0,South,18.4,36.8,N/A,,Clear,170,2014-03-30 20:15:00
3:35 PM,69.8,28.4,21,29.87,-9999.0,South,23.0,31.1,N/A,,Clear,180,2014-03-30 20:35:00
3:55 PM,69.8,28.4,21,29.86,10.0,South,21.9,34.5,N/A,,Clear,180,2014-03-30 20:55:00
4:15 PM,69.8,30.2,23,29.86,10.0,South,19.6,26.5,N/A,,Clear,180,2014-03-30 21:15:00
4:35 PM,69.8,28.4,21,29.85,10.0,South,24.2,33.4,N/A,,Clear,190,2014-03-30 21:35:00
4:55 PM,69.8,28.4,21,29.85,10.0,South,19.6,27.6,N/A,,Clear,190,2014-03-30 21:55:00
5:15 PM,69.8,28.4,21,29.84,10.0,South,23.0,33.4,N/A,,Clear,190,2014-03-30 22:15:00
5:35 PM,69.8,30.2,23,29.84,10.0,South,17.3,28.8,N/A,,Clear,180,2014-03-30 22:35:00
5:55 PM,68.0,30.2,24,29.83,10.0,South,21.9,29.9,N/A,,Partly Cloudy,170,2014-03-30 22:55:00
6:15 PM,66.2,30.2,26,29.83,10.0,SSE,16.1,27.6,N/A,,Scattered Clouds,160,2014-03-30 23:15:00
6:35 PM,66.2,30.2,26,29.82,10.0,SSE,18.4,33.4,N/A,,Scattered Clouds,160,2014-03-30 23:35:00
6:55 PM,64.4,30.2,28,29.83,10.0,SSE,17.3,23.0,N/A,,Clear,160,2014-03-30 23:55:00
7:15 PM,64.4,30.2,28,29.82,10.0,SSE,13.8,21.9,N/A,,Clear,160,2014-03-31 00:15:00
7:35 PM,62.6,30.2,30,29.83,10.0,SSE,11.5,-,N/A,,Clear,160,2014-03-31 00:35:00
7:55 PM,60.8,30.2,31,29.83,10.0,SSE,11.5,-,N/A,,Clear,160,2014-03-31 00:55:00
8:15 PM,60.8,30.2,31,29.84,10.0,SSE,10.4,-,N/A,,Clear,160,2014-03-31 01:15:00
8:35 PM,59.0,30.2,34,29.84,10.0,SSE,8.1,-,N/A,,Clear,150,2014-03-31 01:35:00
8:55 PM,59.0,28.4,31,29.84,10.0,SE,9.2,-,N/A,,Clear,140,2014-03-31 01:55:00
9:15 PM,59.0,28.4,31,29.84,10.0,SE,9.2,-,N/A,,Clear,130,2014-03-31 02:15:00
9:35 PM,57.2,28.4,33,29.84,10.0,SE,10.4,-,N/A,,Clear,140,2014-03-31 02:35:00
9:55 PM,57.2,30.2,36,29.83,10.0,SE,9.2,-,N/A,,Clear,140,2014-03-31 02:55:00
10:15 PM,55.4,30.2,38,29.84,-9999.0,SE,10.4,-,N/A,,Clear,140,2014-03-31 03:15:00
10:35 PM,55.4,30.2,38,29.83,10.0,SE,9.2,-,N/A,,Clear,140,2014-03-31 03:35:00
10:55 PM,55.4,32.0,41,29.83,10.0,SSE,9.2,15.0,N/A,,Partly Cloudy,150,2014-03-31 03:55:00
11:15 PM,53.6,32.0,44,29.83,10.0,SE,8.1,-,N/A,,Scattered Clouds,140,2014-03-31 04:15:00
11:35 PM,53.6,32.0,44,29.82,10.0,SE,10.4,-,N/A,,Scattered Clouds,140,2014-03-31 04:35:00
11:55 PM,55.4,32.0,41,29.82,10.0,SSE,10.4,17.3,N/A,,Overcast,150,2014-03-31 04:55:00